Jonesboro, Texas
Current Conditions -  °F | °C
As of 2:55 PM on Tuesday 25 Nov 2014 (Local Time) from KGOP Reporting Station
Clear Clear  
Wind Chill: 63°   Ceiling: Unl
Heat Index: 63°   Visibility: 10mi
Dew Point: 25°   Wind: 10mph
Humidity: 24%   Direction: 230°SW
Pressure: 30.23"   Gusts: NA
Location:  31.61°N, 97.88°W
Report Text: KGOP 252055Z AUTO 23009KT 10SM CLR 17/M04 A3023 RMK AO2 PWINO
Loading
Personal Weather Stations






























Interactive Weather Map New forecast layout! Learn more

10-Day Weather Forecast

Advertisements
Track Severe Weather on mobile